Digby, Canada
Current Conditions -  °F | °C
As of 12:00 PM on Wednesday 26 Nov 2014 (Local Time) from CYZX Reporting Station
Overcast Overcast  
Wind Chill: 41°   Ceiling: 14000
Heat Index: 45°   Visibility: 15mi
Dew Point: 34°   Wind: 6mph
Humidity: 66%   Direction: 320°NW
Pressure: 30.21"   Gusts: NA
Location:  44.6°N, 65.75°W
Report Text: CYZX 261600Z 32005KT 15SM OVC140 07/01 A3021 RMK AC8 WNDY HILL 34014KT SLP233
Loading
Personal Weather Stations






























Interactive Weather Map New forecast layout! Learn more

10-Day Weather Forecast

Advertisements
Track Severe Weather on mobile